createdAt,value
2022-07-29T00:02:18.586Z,48.77
2022-07-29T00:04:46.941Z,50.63
2022-07-29T00:07:15.134Z,49.61
2022-07-29T00:09:51.973Z,50.36
2022-07-29T00:12:26.208Z,49.34
2022-07-29T00:14:56.067Z,50.39
2022-07-29T00:17:25.823Z,50.38
2022-07-29T00:19:54.298Z,50.21
2022-07-29T00:22:22.423Z,50.24
2022-07-29T00:24:51.165Z,50.21
2022-07-29T00:27:19.374Z,50.54
2022-07-29T00:29:47.941Z,50.94
2022-07-29T00:32:16.394Z,50.68
2022-07-29T00:35:03.492Z,50.90
2022-07-29T00:37:32.067Z,50.60
2022-07-29T00:40:00.411Z,50.01
2022-07-29T00:42:28.906Z,51.21
2022-07-29T00:44:57.308Z,51.87
2022-07-29T00:47:25.314Z,52.28
2022-07-29T00:49:53.601Z,50.69
2022-07-29T00:52:22.942Z,51.82
2022-07-29T00:54:51.212Z,51.50
2022-07-29T00:57:19.660Z,51.85
2022-07-29T00:59:48.143Z,51.84
2022-07-29T01:02:16.261Z,51.94
2022-07-29T01:04:44.766Z,51.94
2022-07-29T01:07:13.804Z,52.39
2022-07-29T01:09:46.737Z,52.22
2022-07-29T01:12:20.348Z,52.91
2022-07-29T01:14:50.519Z,53.10
2022-07-29T01:17:19.131Z,52.47
2022-07-29T01:20:03.633Z,52.08
2022-07-29T01:22:34.969Z,53.07
2022-07-29T01:25:40.663Z,54.49
2022-07-29T01:28:33.436Z,54.21
2022-07-29T01:31:04.347Z,53.08
2022-07-29T01:33:51.525Z,53.24
2022-07-29T01:36:41.678Z,53.56
2022-07-29T01:39:31.132Z,54.25
2022-07-29T01:42:17.154Z,53.47
2022-07-29T01:45:14.626Z,54.53
2022-07-29T01:48:17.855Z,53.54
2022-07-29T01:50:52.998Z,54.12
2022-07-29T01:54:03.568Z,53.31
2022-07-29T01:56:34.745Z,54.14
2022-07-29T01:59:05.697Z,53.48
2022-07-29T02:01:34.922Z,53.35
2022-07-29T02:04:06.577Z,53.46
2022-07-29T02:06:38.409Z,53.92
2022-07-29T02:09:08.684Z,54.10
2022-07-29T02:11:38.892Z,55.45
2022-07-29T02:14:09.993Z,55.74
2022-07-29T02:16:40.966Z,56.21
2022-07-29T02:19:11.634Z,55.98
2022-07-29T02:21:41.464Z,56.58
2022-07-29T02:24:12.795Z,56.83
2022-07-29T02:26:44.152Z,56.17
2022-07-29T02:29:15.140Z,56.32
2022-07-29T02:31:48.253Z,56.16
2022-07-29T02:34:20.098Z,56.74
2022-07-29T02:36:49.700Z,56.35
2022-07-29T02:39:19.635Z,56.51
2022-07-29T02:41:56.650Z,56.29
2022-07-29T02:44:31.257Z,56.77
2022-07-29T02:47:31.592Z,56.29
2022-07-29T02:50:15.605Z,56.18
2022-07-29T02:53:03.244Z,56.80
2022-07-29T02:55:37.043Z,57.38
2022-07-29T02:58:17.285Z,57.61
2022-07-29T03:00:48.607Z,58.36
2022-07-29T03:03:18.436Z,58.82
2022-07-29T03:05:47.142Z,59.92
2022-07-29T03:08:17.422Z,59.54
2022-07-29T03:10:48.143Z,59.23
2022-07-29T03:13:17.190Z,59.64
2022-07-29T03:15:46.414Z,61.50
2022-07-29T03:18:15.825Z,60.38
2022-07-29T03:20:44.651Z,60.50
2022-07-29T03:23:12.969Z,59.66
2022-07-29T03:25:41.026Z,60.70
2022-07-29T03:28:09.786Z,60.69
2022-07-29T03:30:38.074Z,61.59
2022-07-29T03:33:13.466Z,61.90
2022-07-29T03:35:42.708Z,65.40
2022-07-29T03:38:10.813Z,64.72
2022-07-29T03:40:47.737Z,63.41
2022-07-29T03:43:18.990Z,65.17
2022-07-29T03:45:51.098Z,63.09
2022-07-29T03:48:23.222Z,63.12
2022-07-29T03:50:52.312Z,62.26
2022-07-29T03:53:20.868Z,63.36
2022-07-29T03:55:57.557Z,63.27
2022-07-29T03:58:28.541Z,62.82
2022-07-29T04:00:57.702Z,63.14
2022-07-29T04:03:26.886Z,62.65
2022-07-29T04:06:09.329Z,63.87
2022-07-29T04:08:38.330Z,64.62
2022-07-29T04:11:06.926Z,64.18
2022-07-29T04:13:35.096Z,65.19
2022-07-29T04:16:03.701Z,64.18
2022-07-29T04:18:32.010Z,62.85
2022-07-29T04:21:01.813Z,64.36
2022-07-29T04:23:33.622Z,64.87
2022-07-29T04:26:02.157Z,64.44
2022-07-29T04:28:30.624Z,64.49
2022-07-29T04:30:58.771Z,64.34
2022-07-29T04:33:27.148Z,63.88
2022-07-29T04:35:55.496Z,63.82
2022-07-29T04:38:23.951Z,63.72
2022-07-29T04:40:52.125Z,63.20
2022-07-29T04:43:23.273Z,64.44
2022-07-29T04:45:51.826Z,64.09
2022-07-29T04:48:23.984Z,63.37
2022-07-29T04:50:57.452Z,63.33
2022-07-29T04:53:26.186Z,63.20
2022-07-29T04:55:54.418Z,62.51
2022-07-29T04:58:24.675Z,62.41
2022-07-29T05:00:53.108Z,62.89
2022-07-29T05:03:21.392Z,61.79
2022-07-29T05:05:49.689Z,62.64
2022-07-29T05:08:18.428Z,61.09
2022-07-29T05:10:46.830Z,61.65
2022-07-29T05:13:15.045Z,61.38
2022-07-29T05:15:43.649Z,62.05
2022-07-29T05:18:11.877Z,61.51
2022-07-29T05:20:40.129Z,61.81
2022-07-29T05:23:08.626Z,61.33
2022-07-29T05:25:43.550Z,60.31
2022-07-29T05:28:13.612Z,59.49
2022-07-29T05:30:42.072Z,59.44
2022-07-29T05:33:35.606Z,59.38
2022-07-29T05:36:00.947Z,59.27
2022-07-29T05:38:30.141Z,58.34
2022-07-29T05:41:00.302Z,58.26
2022-07-29T05:43:30.984Z,57.19
2022-07-29T05:45:59.873Z,58.30
2022-07-29T05:48:28.475Z,57.15
2022-07-29T05:50:56.636Z,56.87
2022-07-29T05:53:25.110Z,56.68
2022-07-29T05:55:53.721Z,56.02
2022-07-29T05:58:22.477Z,56.80
2022-07-29T06:00:50.894Z,55.23
2022-07-29T06:03:19.388Z,55.01
2022-07-29T06:05:47.451Z,55.57
2022-07-29T06:08:15.551Z,54.57
2022-07-29T06:10:44.590Z,55.55
2022-07-29T06:13:13.470Z,58.14
2022-07-29T06:15:41.757Z,54.55
2022-07-29T06:18:11.237Z,54.58
2022-07-29T06:20:39.393Z,53.63
2022-07-29T06:23:07.649Z,54.32
2022-07-29T06:25:37.758Z,52.34
2022-07-29T06:28:05.961Z,52.01
2022-07-29T06:30:34.085Z,54.47
2022-07-29T06:33:03.308Z,51.30
2022-07-29T06:35:39.278Z,50.58
2022-07-29T06:38:31.685Z,50.34
2022-07-29T06:41:00.996Z,50.41
2022-07-29T06:43:33.201Z,48.90
2022-07-29T06:46:03.747Z,46.94
2022-07-29T06:48:33.064Z,48.23
2022-07-29T06:51:01.782Z,48.90
2022-07-29T06:53:30.924Z,46.37
2022-07-29T06:56:01.026Z,48.26
2022-07-29T06:58:30.340Z,47.80
2022-07-29T07:01:01.661Z,48.82
2022-07-29T07:03:30.228Z,48.09
2022-07-29T07:05:58.512Z,47.05
2022-07-29T07:08:28.336Z,47.16
2022-07-29T07:10:57.909Z,47.22
2022-07-29T07:13:26.157Z,47.07
2022-07-29T07:15:54.390Z,46.89
2022-07-29T07:18:22.890Z,47.58
2022-07-29T07:20:51.407Z,47.53
2022-07-29T07:23:19.617Z,45.57
2022-07-29T07:25:48.049Z,44.73
2022-07-29T07:28:16.476Z,43.14
2022-07-29T07:30:46.333Z,44.35
2022-07-29T07:33:15.369Z,42.83
2022-07-29T07:35:43.709Z,43.07
2022-07-29T07:38:11.981Z,41.62
2022-07-29T07:40:40.430Z,39.93
2022-07-29T07:43:08.661Z,41.38
2022-07-29T07:45:38.470Z,40.12
2022-07-29T07:48:07.180Z,41.44
2022-07-29T07:50:35.381Z,42.13
2022-07-29T07:53:03.958Z,39.38
2022-07-29T07:55:53.213Z,38.26
2022-07-29T07:58:20.971Z,38.05
2022-07-29T08:00:49.601Z,40.53
2022-07-29T08:03:18.020Z,38.26
2022-07-29T08:05:47.613Z,36.44
2022-07-29T08:08:15.830Z,38.05
2022-07-29T08:10:53.242Z,36.21
2022-07-29T08:13:23.111Z,37.76
2022-07-29T08:16:12.573Z,36.45
2022-07-29T08:18:42.631Z,36.69
2022-07-29T08:21:11.362Z,38.31
2022-07-29T08:23:55.867Z,34.28
2022-07-29T08:26:27.317Z,36.86
2022-07-29T08:28:55.976Z,33.64
2022-07-29T08:31:24.196Z,35.12
2022-07-29T08:33:52.679Z,33.27
2022-07-29T08:36:22.202Z,34.33
2022-07-29T08:38:51.070Z,35.32
2022-07-29T08:41:20.770Z,33.82
2022-07-29T08:43:50.961Z,34.64
2022-07-29T08:46:20.306Z,33.21
2022-07-29T08:48:49.045Z,32.70
2022-07-29T08:51:19.672Z,32.93
2022-07-29T08:53:49.868Z,32.60
2022-07-29T08:56:20.453Z,30.08
2022-07-29T08:58:52.013Z,33.81
2022-07-29T09:01:36.273Z,30.81
2022-07-29T09:04:13.193Z,30.22
2022-07-29T09:06:47.396Z,31.21
2022-07-29T09:09:16.485Z,30.81
2022-07-29T09:11:45.251Z,30.62
2022-07-29T09:14:14.772Z,29.58
2022-07-29T09:16:55.411Z,32.48
2022-07-29T09:19:28.128Z,31.73
2022-07-29T09:22:04.274Z,31.06
2022-07-29T09:24:47.115Z,29.28
2022-07-29T09:27:18.647Z,27.73
2022-07-29T09:29:47.937Z,28.80
2022-07-29T09:32:16.467Z,31.83
2022-07-29T09:34:44.949Z,30.64
2022-07-29T09:37:13.191Z,27.27
2022-07-29T09:39:47.840Z,28.68
2022-07-29T09:42:29.888Z,29.70
2022-07-29T09:44:58.371Z,29.82
2022-07-29T09:47:42.954Z,29.56
2022-07-29T09:50:11.818Z,27.53
2022-07-29T09:52:51.583Z,30.12
2022-07-29T09:55:20.522Z,29.28
2022-07-29T09:57:48.763Z,26.92
2022-07-29T10:00:19.894Z,29.92
2022-07-29T10:02:49.124Z,26.84
2022-07-29T10:05:23.836Z,28.47
2022-07-29T10:07:54.167Z,28.13
2022-07-29T10:10:31.618Z,26.69
2022-07-29T10:13:07.215Z,26.29
2022-07-29T10:15:45.411Z,27.58
2022-07-29T10:18:15.553Z,25.79
2022-07-29T10:20:43.841Z,29.45
2022-07-29T10:23:12.161Z,28.28
2022-07-29T10:25:45.676Z,26.05
2022-07-29T10:28:16.705Z,27.60
2022-07-29T10:30:47.846Z,25.99
2022-07-29T10:33:34.164Z,26.79
2022-07-29T10:36:15.550Z,26.32
2022-07-29T10:39:15.557Z,27.10
2022-07-29T10:42:16.987Z,29.14
2022-07-29T10:44:48.797Z,25.97
2022-07-29T10:47:28.271Z,27.98
2022-07-29T10:50:07.265Z,27.75
2022-07-29T10:52:54.699Z,26.24
2022-07-29T10:55:45.685Z,26.21
2022-07-29T10:58:20.022Z,26.70
2022-07-29T11:00:54.376Z,25.64
2022-07-29T11:03:49.211Z,27.52
2022-07-29T11:06:26.654Z,27.60
2022-07-29T11:12:39.539Z,28.41
2022-07-29T11:18:01.968Z,27.10
2022-07-29T11:20:37.757Z,27.30
2022-07-29T11:23:42.804Z,27.50
2022-07-29T11:26:18.930Z,27.08
2022-07-29T11:29:29.358Z,27.09
2022-07-29T11:32:15.950Z,27.22
2022-07-29T11:35:17.292Z,28.88
2022-07-29T11:37:55.804Z,29.99
2022-07-29T11:40:26.181Z,28.87
2022-07-29T11:42:54.994Z,28.69
2022-07-29T11:45:42.063Z,28.98
2022-07-29T11:51:13.348Z,29.61
2022-07-29T11:53:48.168Z,29.60
2022-07-29T11:56:22.650Z,29.28
2022-07-29T11:59:09.652Z,30.26
2022-07-29T12:01:38.246Z,29.67
2022-07-29T12:04:07.887Z,29.50
2022-07-29T12:06:36.451Z,30.69
2022-07-29T12:09:11.303Z,28.93
2022-07-29T12:11:45.030Z,28.45
2022-07-29T12:14:29.563Z,29.28
2022-07-29T12:16:59.501Z,28.06
2022-07-29T12:19:28.249Z,28.21
2022-07-29T12:22:00.864Z,28.66
2022-07-29T12:24:45.201Z,28.45
2022-07-29T12:27:18.185Z,27.61
2022-07-29T12:30:00.752Z,28.27
2022-07-29T12:32:41.197Z,28.41
2022-07-29T12:35:15.892Z,28.66
2022-07-29T12:37:46.011Z,28.40
2022-07-29T12:40:17.619Z,27.47
2022-07-29T12:43:10.481Z,28.82
2022-07-29T12:45:40.741Z,28.41
2022-07-29T12:48:12.295Z,28.65
2022-07-29T12:50:58.395Z,29.16
2022-07-29T12:53:27.774Z,27.88
2022-07-29T12:55:58.264Z,28.83
2022-07-29T12:58:31.843Z,27.75
2022-07-29T13:01:20.462Z,28.80
2022-07-29T13:04:01.888Z,29.29
2022-07-29T13:06:37.693Z,28.45
2022-07-29T13:09:10.351Z,28.22
2022-07-29T13:11:46.543Z,28.73
2022-07-29T13:14:35.503Z,27.29
2022-07-29T13:17:12.324Z,27.17
2022-07-29T13:19:49.536Z,26.75
2022-07-29T13:22:25.666Z,27.02
2022-07-29T13:25:03.136Z,26.44
2022-07-29T13:27:34.333Z,27.43
2022-07-29T13:30:06.463Z,28.18
2022-07-29T13:32:35.980Z,28.08
2022-07-29T13:35:07.470Z,27.94
2022-07-29T13:37:39.531Z,28.74
2022-07-29T13:40:09.619Z,28.10
2022-07-29T13:42:38.489Z,26.68
2022-07-29T13:45:07.774Z,27.18
2022-07-29T13:47:36.304Z,26.92
2022-07-29T13:50:06.743Z,27.20
2022-07-29T13:52:35.677Z,28.40
2022-07-29T13:55:04.989Z,27.36
2022-07-29T13:57:33.528Z,28.79
2022-07-29T14:00:01.652Z,28.08
2022-07-29T14:02:36.749Z,27.77
2022-07-29T14:05:08.687Z,27.79
2022-07-29T14:07:40.583Z,28.62
2022-07-29T14:10:09.554Z,28.84
2022-07-29T14:12:39.238Z,29.33
2022-07-29T14:15:07.951Z,29.27
2022-07-29T14:17:36.434Z,30.34
2022-07-29T14:20:05.700Z,29.63
2022-07-29T14:22:37.829Z,29.98
2022-07-29T14:25:14.533Z,28.89
2022-07-29T14:27:44.887Z,28.14
2022-07-29T14:30:14.052Z,28.47
2022-07-29T14:32:42.443Z,26.46
2022-07-29T14:35:10.815Z,28.26
2022-07-29T14:37:40.607Z,26.11
2022-07-29T14:40:10.577Z,26.24
2022-07-29T14:42:39.544Z,26.09
2022-07-29T14:45:10.176Z,25.95
2022-07-29T14:47:39.433Z,25.46
2022-07-29T14:50:09.306Z,26.57
2022-07-29T14:52:37.528Z,25.64
2022-07-29T14:55:06.119Z,26.15
2022-07-29T14:57:49.260Z,25.73
2022-07-29T15:00:18.920Z,26.75
2022-07-29T15:03:01.552Z,26.08
2022-07-29T15:05:32.245Z,26.60
2022-07-29T15:08:00.787Z,25.37
2022-07-29T15:10:29.188Z,26.45
2022-07-29T15:12:58.423Z,26.36
2022-07-29T15:15:26.953Z,25.50
2022-07-29T15:17:55.208Z,26.47
2022-07-29T15:20:26.402Z,26.37
2022-07-29T15:22:56.518Z,25.90
2022-07-29T15:25:26.363Z,26.80
2022-07-29T15:28:00.931Z,26.41
2022-07-29T15:30:34.451Z,26.82
2022-07-29T15:33:04.573Z,25.90
2022-07-29T15:35:40.565Z,27.17
2022-07-29T15:38:09.438Z,26.36
2022-07-29T15:40:44.581Z,26.56
2022-07-29T15:43:12.966Z,26.82
2022-07-29T15:46:03.683Z,27.13
2022-07-29T15:48:32.524Z,27.24
2022-07-29T15:51:01.185Z,27.62
2022-07-29T15:53:29.644Z,27.53
2022-07-29T15:55:57.803Z,27.29
2022-07-29T15:58:26.231Z,27.43
2022-07-29T16:00:54.391Z,27.58
2022-07-29T16:03:23.127Z,27.45
2022-07-29T16:05:51.315Z,28.06
2022-07-29T16:08:19.765Z,27.37
2022-07-29T16:10:48.330Z,26.78
2022-07-29T16:13:17.849Z,27.24
2022-07-29T16:16:01.997Z,27.15
2022-07-29T16:18:31.034Z,27.21
2022-07-29T16:20:59.440Z,27.66
2022-07-29T16:23:27.482Z,27.79
2022-07-29T16:26:00.526Z,28.84
2022-07-29T16:28:30.339Z,27.75
2022-07-29T16:30:58.629Z,27.91
2022-07-29T16:33:27.174Z,28.70
2022-07-29T16:35:55.722Z,28.49
2022-07-29T16:38:24.002Z,28.60
2022-07-29T16:40:52.304Z,28.79
2022-07-29T16:43:20.741Z,29.22
2022-07-29T16:45:48.974Z,28.92
2022-07-29T16:48:18.221Z,30.47
2022-07-29T16:50:47.301Z,31.57
2022-07-29T16:53:15.613Z,31.93
2022-07-29T16:55:43.957Z,32.64
2022-07-29T16:58:12.811Z,33.67
2022-07-29T17:00:43.481Z,33.77
2022-07-29T17:03:11.686Z,34.20
2022-07-29T17:05:52.245Z,30.60
2022-07-29T17:08:23.274Z,30.18
2022-07-29T17:10:51.944Z,32.46
2022-07-29T17:13:20.289Z,32.45
2022-07-29T17:15:48.590Z,31.63
2022-07-29T17:18:17.533Z,32.42
2022-07-29T17:20:45.720Z,33.13
2022-07-29T17:23:13.928Z,32.35
2022-07-29T17:25:42.552Z,33.93
2022-07-29T17:28:10.698Z,34.26
2022-07-29T17:30:38.901Z,34.15
2022-07-29T17:33:08.732Z,35.06
2022-07-29T17:35:55.441Z,35.37
2022-07-29T17:38:23.893Z,35.16
2022-07-29T17:40:52.012Z,34.58
2022-07-29T17:43:20.253Z,33.73
2022-07-29T17:45:50.776Z,33.59
2022-07-29T17:48:20.067Z,34.41
2022-07-29T17:50:49.257Z,34.43
2022-07-29T17:53:20.012Z,34.10
2022-07-29T17:55:51.259Z,35.78
2022-07-29T17:58:19.752Z,34.90
2022-07-29T18:00:48.407Z,36.16
2022-07-29T18:03:17.361Z,35.93
2022-07-29T18:05:45.696Z,35.70
2022-07-29T18:08:13.849Z,35.59
2022-07-29T18:10:43.160Z,34.74
2022-07-29T18:13:12.861Z,36.09
2022-07-29T18:15:41.114Z,34.91
2022-07-29T18:18:09.878Z,35.70
2022-07-29T18:20:38.508Z,36.26
2022-07-29T18:23:06.702Z,37.23
2022-07-29T18:25:35.040Z,37.24
2022-07-29T18:28:04.194Z,38.02
2022-07-29T18:30:34.509Z,38.29
2022-07-29T18:33:21.310Z,38.71
2022-07-29T18:35:52.478Z,38.96
2022-07-29T18:38:36.046Z,39.39
2022-07-29T18:41:05.888Z,39.96
2022-07-29T18:43:33.981Z,39.92
2022-07-29T18:46:02.710Z,39.84
2022-07-29T18:48:33.471Z,40.02
2022-07-29T18:51:01.728Z,40.23
2022-07-29T18:53:30.231Z,40.23
2022-07-29T18:56:00.303Z,40.23
2022-07-29T18:58:28.839Z,40.11
2022-07-29T19:00:57.298Z,40.20
2022-07-29T19:03:25.675Z,41.15
2022-07-29T19:05:53.713Z,40.84
2022-07-29T19:08:22.279Z,40.71
2022-07-29T19:10:50.871Z,40.42
2022-07-29T19:13:19.179Z,41.07
2022-07-29T19:15:48.195Z,40.82
2022-07-29T19:18:16.477Z,41.16
2022-07-29T19:20:44.623Z,41.57
2022-07-29T19:23:13.247Z,41.66
2022-07-29T19:25:48.317Z,41.65
2022-07-29T19:28:22.941Z,41.90
2022-07-29T19:30:51.790Z,41.54
2022-07-29T19:33:20.504Z,41.96
2022-07-29T19:35:54.316Z,42.88
2022-07-29T19:38:23.474Z,42.54
2022-07-29T19:40:52.518Z,42.95
2022-07-29T19:43:50.721Z,43.53
2022-07-29T19:46:09.329Z,43.29
2022-07-29T19:48:37.543Z,43.54
2022-07-29T19:51:05.683Z,43.95
2022-07-29T19:53:34.189Z,43.83
2022-07-29T19:56:02.262Z,44.14
2022-07-29T19:58:32.053Z,44.79
2022-07-29T20:01:01.297Z,44.42
2022-07-29T20:03:29.816Z,44.59
2022-07-29T20:05:58.304Z,44.93
2022-07-29T20:08:26.485Z,44.45
2022-07-29T20:10:56.006Z,44.39
2022-07-29T20:13:25.111Z,44.30
2022-07-29T20:15:53.656Z,43.16
2022-07-29T20:18:22.320Z,43.94
2022-07-29T20:20:50.762Z,44.52
2022-07-29T20:23:19.605Z,44.36
2022-07-29T20:25:48.666Z,45.28
2022-07-29T20:28:17.783Z,45.46
2022-07-29T20:30:47.488Z,45.65
2022-07-29T20:33:16.651Z,45.77
2022-07-29T20:35:44.812Z,45.76
2022-07-29T20:38:18.041Z,46.50
2022-07-29T20:40:47.336Z,45.88
2022-07-29T20:43:15.937Z,46.32
2022-07-29T20:45:44.093Z,45.81
2022-07-29T20:48:13.887Z,45.82
2022-07-29T20:50:42.929Z,45.84
2022-07-29T20:53:12.944Z,45.97
2022-07-29T20:55:41.339Z,45.77
2022-07-29T20:58:09.684Z,45.90
2022-07-29T21:00:37.798Z,46.44
2022-07-29T21:03:06.218Z,46.27
2022-07-29T21:05:36.444Z,46.93
2022-07-29T21:08:05.029Z,47.15
2022-07-29T21:10:33.643Z,47.48
2022-07-29T21:13:02.015Z,47.87
2022-07-29T21:15:30.453Z,48.81
2022-07-29T21:18:06.274Z,48.99
2022-07-29T21:20:34.519Z,48.84
2022-07-29T21:23:03.366Z,48.76
2022-07-29T21:25:31.482Z,48.92
2022-07-29T21:28:18.309Z,49.56
2022-07-29T21:30:47.187Z,49.65
2022-07-29T21:33:15.399Z,49.24
2022-07-29T21:36:06.311Z,49.52
2022-07-29T21:38:32.927Z,49.62
2022-07-29T21:41:01.748Z,49.62
2022-07-29T21:43:30.267Z,49.95
2022-07-29T21:46:00.672Z,49.74
2022-07-29T21:48:29.158Z,49.92
2022-07-29T21:50:57.652Z,50.21
2022-07-29T21:53:28.476Z,49.26
2022-07-29T21:55:56.962Z,50.35
2022-07-29T21:58:25.270Z,50.66
2022-07-29T22:00:54.278Z,50.29
2022-07-29T22:03:22.809Z,50.76
2022-07-29T22:05:53.565Z,50.97
2022-07-29T22:08:21.958Z,51.10
2022-07-29T22:10:50.438Z,51.47
2022-07-29T22:13:18.601Z,51.59
2022-07-29T22:15:47.413Z,52.01
2022-07-29T22:18:20.992Z,52.23
2022-07-29T22:20:50.687Z,52.04
2022-07-29T22:23:19.065Z,52.33
2022-07-29T22:25:47.272Z,52.58
2022-07-29T22:28:15.643Z,52.75
2022-07-29T22:30:44.078Z,53.38
2022-07-29T22:33:16.858Z,53.37
2022-07-29T22:35:48.690Z,53.46
2022-07-29T22:38:18.517Z,54.27
2022-07-29T22:40:48.734Z,54.10
2022-07-29T22:43:18.945Z,54.51
2022-07-29T22:45:47.446Z,54.76
2022-07-29T22:48:15.658Z,55.61
2022-07-29T22:50:43.960Z,55.42
2022-07-29T22:53:12.430Z,55.99
2022-07-29T22:55:40.590Z,56.75
2022-07-29T22:58:08.838Z,56.35
2022-07-29T23:00:37.342Z,56.23
2022-07-29T23:03:05.460Z,56.53
2022-07-29T23:05:33.738Z,56.68
2022-07-29T23:08:02.178Z,57.12
2022-07-29T23:10:30.334Z,56.37
2022-07-29T23:12:58.642Z,56.71
2022-07-29T23:15:27.755Z,57.33
2022-07-29T23:17:55.905Z,56.94
2022-07-29T23:20:24.172Z,56.90
2022-07-29T23:22:56.258Z,57.73
2022-07-29T23:25:24.450Z,57.78
2022-07-29T23:27:53.382Z,57.69
2022-07-29T23:30:21.480Z,57.62
2022-07-29T23:32:49.877Z,57.77
2022-07-29T23:35:18.781Z,57.48
2022-07-29T23:37:46.900Z,57.39
2022-07-29T23:40:15.616Z,58.35
2022-07-29T23:42:44.756Z,58.56
2022-07-29T23:45:16.022Z,58.44
2022-07-29T23:47:44.460Z,58.27
2022-07-29T23:50:13.356Z,57.97
2022-07-29T23:52:41.967Z,58.75
2022-07-29T23:55:36.853Z,58.53
2022-07-29T23:58:00.596Z,58.48
